Terminal Aerodrome Forecast
Issued by NWS

Home | Current Version | Previous Version | Text Only | Print | Product List | Glossary On
Versions: 1 2 3 4 5 6 7 8 9 10 11 12 13 14 15 16 17 18 19
190
FTUS42 KTAE 170532
TAFABY
TAF
KABY 170532Z 1706/1806 00000KT P6SM SCT070 BKN250
     FM171000 12004KT 5SM BR SCT250
     FM171300 17005KT P6SM SCT050
     FM180300 00000KT 6SM BR OVC050=

USA.gov is the U.S. government's official web portal to all federal, state and local government web resources and services.